sensor_id;sensor_type;location;lat;lon;timestamp;P1;durP1;ratioP1;P2;durP2;ratioP2
10226;SDS011;15634;48.766;2.272;2023-03-11T00:00:49;6.97;;;4.25;;
10226;SDS011;15634;48.766;2.272;2023-03-11T00:03:17;7.82;;;3.95;;
10226;SDS011;15634;48.766;2.272;2023-03-11T00:05:47;7.43;;;4.20;;
10226;SDS011;15634;48.766;2.272;2023-03-11T00:08:14;6.65;;;3.70;;
10226;SDS011;15634;48.766;2.272;2023-03-11T00:10:43;5.22;;;3.70;;
10226;SDS011;15634;48.766;2.272;2023-03-11T00:13:12;7.65;;;3.88;;
10226;SDS011;15634;48.766;2.272;2023-03-11T00:15:39;6.40;;;3.40;;
10226;SDS011;15634;48.766;2.272;2023-03-11T00:18:06;5.78;;;3.67;;
10226;SDS011;15634;48.766;2.272;2023-03-11T00:20:35;6.18;;;3.53;;
10226;SDS011;15634;48.766;2.272;2023-03-11T00:23:04;5.75;;;3.55;;
10226;SDS011;15634;48.766;2.272;2023-03-11T00:25:32;6.07;;;3.55;;
10226;SDS011;15634;48.766;2.272;2023-03-11T00:28:00;7.22;;;3.33;;
10226;SDS011;15634;48.766;2.272;2023-03-11T00:30:27;7.15;;;3.63;;
10226;SDS011;15634;48.766;2.272;2023-03-11T00:32:55;6.63;;;3.60;;
10226;SDS011;15634;48.766;2.272;2023-03-11T00:35:23;5.78;;;3.42;;
10226;SDS011;15634;48.766;2.272;2023-03-11T00:37:53;7.18;;;3.53;;
10226;SDS011;15634;48.766;2.272;2023-03-11T00:40:21;6.18;;;4.05;;
10226;SDS011;15634;48.766;2.272;2023-03-11T00:42:49;7.63;;;4.10;;
10226;SDS011;15634;48.766;2.272;2023-03-11T00:45:16;7.70;;;4.03;;
10226;SDS011;15634;48.766;2.272;2023-03-11T00:47:44;5.97;;;4.22;;
10226;SDS011;15634;48.766;2.272;2023-03-11T00:50:13;8.70;;;4.50;;
10226;SDS011;15634;48.766;2.272;2023-03-11T00:52:41;11.32;;;4.75;;
10226;SDS011;15634;48.766;2.272;2023-03-11T00:55:10;8.05;;;4.20;;
10226;SDS011;15634;48.766;2.272;2023-03-11T00:57:39;8.80;;;4.38;;
10226;SDS011;15634;48.766;2.272;2023-03-11T01:00:06;6.90;;;4.10;;
10226;SDS011;15634;48.766;2.272;2023-03-11T01:02:36;5.70;;;3.63;;
10226;SDS011;15634;48.766;2.272;2023-03-11T01:05:02;8.27;;;3.78;;
10226;SDS011;15634;48.766;2.272;2023-03-11T01:07:30;6.20;;;3.28;;
10226;SDS011;15634;48.766;2.272;2023-03-11T01:09:57;8.93;;;3.72;;
10226;SDS011;15634;48.766;2.272;2023-03-11T01:12:25;6.40;;;3.67;;
10226;SDS011;15634;48.766;2.272;2023-03-11T01:14:52;5.63;;;3.55;;
10226;SDS011;15634;48.766;2.272;2023-03-11T01:17:19;8.82;;;3.88;;
10226;SDS011;15634;48.766;2.272;2023-03-11T01:19:46;5.65;;;3.55;;
10226;SDS011;15634;48.766;2.272;2023-03-11T01:22:13;6.13;;;3.65;;
10226;SDS011;15634;48.766;2.272;2023-03-11T01:24:40;4.95;;;3.55;;
10226;SDS011;15634;48.766;2.272;2023-03-11T01:27:06;6.18;;;3.78;;
10226;SDS011;15634;48.766;2.272;2023-03-11T01:29:34;5.05;;;3.63;;
10226;SDS011;15634;48.766;2.272;2023-03-11T01:32:01;7.70;;;3.78;;
10226;SDS011;15634;48.766;2.272;2023-03-11T01:34:28;6.82;;;3.45;;
10226;SDS011;15634;48.766;2.272;2023-03-11T01:36:54;8.25;;;3.72;;
10226;SDS011;15634;48.766;2.272;2023-03-11T01:39:21;5.25;;;3.70;;
10226;SDS011;15634;48.766;2.272;2023-03-11T01:41:47;6.05;;;3.40;;
10226;SDS011;15634;48.766;2.272;2023-03-11T01:44:14;10.27;;;3.80;;
10226;SDS011;15634;48.766;2.272;2023-03-11T01:49:59;7.70;;;3.03;;
10226;SDS011;15634;48.766;2.272;2023-03-11T01:52:25;8.40;;;2.90;;
10226;SDS011;15634;48.766;2.272;2023-03-11T01:54:52;7.15;;;2.85;;
10226;SDS011;15634;48.766;2.272;2023-03-11T01:57:19;7.22;;;3.20;;
10226;SDS011;15634;48.766;2.272;2023-03-11T01:59:47;6.43;;;3.10;;
10226;SDS011;15634;48.766;2.272;2023-03-11T02:02:16;7.05;;;3.53;;
10226;SDS011;15634;48.766;2.272;2023-03-11T02:04:46;5.07;;;3.00;;
10226;SDS011;15634;48.766;2.272;2023-03-11T02:07:14;6.10;;;3.10;;
10226;SDS011;15634;48.766;2.272;2023-03-11T02:09:40;7.25;;;3.38;;
10226;SDS011;15634;48.766;2.272;2023-03-11T02:12:08;6.28;;;3.28;;
10226;SDS011;15634;48.766;2.272;2023-03-11T02:14:35;7.93;;;3.08;;
10226;SDS011;15634;48.766;2.272;2023-03-11T02:17:03;6.30;;;3.20;;
10226;SDS011;15634;48.766;2.272;2023-03-11T02:19:31;6.93;;;2.88;;
10226;SDS011;15634;48.766;2.272;2023-03-11T02:22:01;8.45;;;2.83;;
10226;SDS011;15634;48.766;2.272;2023-03-11T02:24:29;4.45;;;2.55;;
10226;SDS011;15634;48.766;2.272;2023-03-11T02:29:31;3.65;;;2.42;;
10226;SDS011;15634;48.766;2.272;2023-03-11T02:31:58;5.28;;;2.40;;
10226;SDS011;15634;48.766;2.272;2023-03-11T02:34:29;7.00;;;2.63;;
10226;SDS011;15634;48.766;2.272;2023-03-11T02:36:57;8.18;;;2.80;;
10226;SDS011;15634;48.766;2.272;2023-03-11T02:39:30;5.53;;;2.45;;
10226;SDS011;15634;48.766;2.272;2023-03-11T02:41:58;6.63;;;2.97;;
10226;SDS011;15634;48.766;2.272;2023-03-11T02:44:27;6.05;;;2.78;;
10226;SDS011;15634;48.766;2.272;2023-03-11T02:46:53;5.82;;;2.80;;
10226;SDS011;15634;48.766;2.272;2023-03-11T02:49:20;5.22;;;2.78;;
10226;SDS011;15634;48.766;2.272;2023-03-11T02:51:48;6.40;;;2.75;;
10226;SDS011;15634;48.766;2.272;2023-03-11T02:54:15;7.35;;;2.70;;
10226;SDS011;15634;48.766;2.272;2023-03-11T02:56:41;11.90;;;3.08;;
10226;SDS011;15634;48.766;2.272;2023-03-11T02:59:08;6.13;;;3.10;;
10226;SDS011;15634;48.766;2.272;2023-03-11T03:01:36;5.50;;;3.05;;
10226;SDS011;15634;48.766;2.272;2023-03-11T03:04:03;4.80;;;3.00;;
10226;SDS011;15634;48.766;2.272;2023-03-11T03:06:29;7.43;;;2.90;;
10226;SDS011;15634;48.766;2.272;2023-03-11T03:08:56;6.72;;;3.10;;
10226;SDS011;15634;48.766;2.272;2023-03-11T03:11:22;5.15;;;3.10;;
10226;SDS011;15634;48.766;2.272;2023-03-11T03:13:49;8.52;;;3.33;;
10226;SDS011;15634;48.766;2.272;2023-03-11T03:16:16;6.43;;;3.08;;
10226;SDS011;15634;48.766;2.272;2023-03-11T03:18:43;5.47;;;3.08;;
10226;SDS011;15634;48.766;2.272;2023-03-11T03:21:10;5.72;;;3.05;;
10226;SDS011;15634;48.766;2.272;2023-03-11T03:23:37;6.07;;;3.00;;
10226;SDS011;15634;48.766;2.272;2023-03-11T03:26:03;8.70;;;3.72;;
10226;SDS011;15634;48.766;2.272;2023-03-11T03:28:30;9.10;;;3.20;;
10226;SDS011;15634;48.766;2.272;2023-03-11T03:31:01;6.95;;;3.03;;
10226;SDS011;15634;48.766;2.272;2023-03-11T03:33:29;6.18;;;3.30;;
10226;SDS011;15634;48.766;2.272;2023-03-11T03:35:57;5.60;;;3.10;;
10226;SDS011;15634;48.766;2.272;2023-03-11T03:38:24;5.78;;;2.92;;
10226;SDS011;15634;48.766;2.272;2023-03-11T03:40:51;8.27;;;3.30;;
10226;SDS011;15634;48.766;2.272;2023-03-11T03:43:17;6.15;;;2.90;;
10226;SDS011;15634;48.766;2.272;2023-03-11T03:45:44;9.32;;;3.15;;
10226;SDS011;15634;48.766;2.272;2023-03-11T03:48:10;6.10;;;3.15;;
10226;SDS011;15634;48.766;2.272;2023-03-11T03:50:38;6.03;;;2.90;;
10226;SDS011;15634;48.766;2.272;2023-03-11T03:53:06;7.18;;;2.95;;
10226;SDS011;15634;48.766;2.272;2023-03-11T03:55:32;4.90;;;2.92;;
10226;SDS011;15634;48.766;2.272;2023-03-11T03:57:59;7.07;;;3.10;;
10226;SDS011;15634;48.766;2.272;2023-03-11T04:00:25;5.93;;;2.92;;
10226;SDS011;15634;48.766;2.272;2023-03-11T04:02:52;7.20;;;3.20;;
10226;SDS011;15634;48.766;2.272;2023-03-11T04:05:19;9.05;;;3.17;;
10226;SDS011;15634;48.766;2.272;2023-03-11T04:07:46;5.10;;;3.15;;
10226;SDS011;15634;48.766;2.272;2023-03-11T04:10:14;7.93;;;3.35;;
10226;SDS011;15634;48.766;2.272;2023-03-11T04:12:40;6.47;;;2.90;;
10226;SDS011;15634;48.766;2.272;2023-03-11T04:15:07;5.50;;;2.80;;
10226;SDS011;15634;48.766;2.272;2023-03-11T04:17:34;4.43;;;3.00;;
10226;SDS011;15634;48.766;2.272;2023-03-11T04:20:01;4.75;;;2.88;;
10226;SDS011;15634;48.766;2.272;2023-03-11T04:22:31;8.98;;;3.22;;
10226;SDS011;15634;48.766;2.272;2023-03-11T04:24:57;7.00;;;3.35;;
10226;SDS011;15634;48.766;2.272;2023-03-11T04:27:25;8.82;;;3.72;;
10226;SDS011;15634;48.766;2.272;2023-03-11T04:29:52;6.78;;;3.28;;
10226;SDS011;15634;48.766;2.272;2023-03-11T04:32:18;6.65;;;3.35;;
10226;SDS011;15634;48.766;2.272;2023-03-11T04:34:46;6.70;;;3.30;;
10226;SDS011;15634;48.766;2.272;2023-03-11T04:37:13;8.25;;;3.47;;
10226;SDS011;15634;48.766;2.272;2023-03-11T04:39:39;7.32;;;3.78;;
10226;SDS011;15634;48.766;2.272;2023-03-11T04:42:06;4.97;;;3.30;;
10226;SDS011;15634;48.766;2.272;2023-03-11T04:44:34;5.93;;;3.50;;
10226;SDS011;15634;48.766;2.272;2023-03-11T04:47:01;8.25;;;3.47;;
10226;SDS011;15634;48.766;2.272;2023-03-11T04:49:28;7.90;;;3.63;;
10226;SDS011;15634;48.766;2.272;2023-03-11T04:51:54;8.75;;;3.85;;
10226;SDS011;15634;48.766;2.272;2023-03-11T04:54:21;9.85;;;3.60;;
10226;SDS011;15634;48.766;2.272;2023-03-11T04:56:48;6.75;;;3.20;;
10226;SDS011;15634;48.766;2.272;2023-03-11T04:59:14;9.32;;;3.47;;
10226;SDS011;15634;48.766;2.272;2023-03-11T05:01:42;8.10;;;3.60;;
10226;SDS011;15634;48.766;2.272;2023-03-11T05:04:09;6.63;;;3.45;;
10226;SDS011;15634;48.766;2.272;2023-03-11T05:06:36;6.07;;;3.60;;
10226;SDS011;15634;48.766;2.272;2023-03-11T05:09:03;8.73;;;3.85;;
10226;SDS011;15634;48.766;2.272;2023-03-11T05:11:30;6.60;;;3.50;;
10226;SDS011;15634;48.766;2.272;2023-03-11T05:13:56;6.35;;;3.33;;
10226;SDS011;15634;48.766;2.272;2023-03-11T05:16:23;7.35;;;3.83;;
10226;SDS011;15634;48.766;2.272;2023-03-11T05:18:51;10.23;;;4.13;;
10226;SDS011;15634;48.766;2.272;2023-03-11T05:21:17;5.70;;;3.50;;
10226;SDS011;15634;48.766;2.272;2023-03-11T05:23:44;6.63;;;3.90;;
10226;SDS011;15634;48.766;2.272;2023-03-11T05:26:11;6.70;;;3.67;;
10226;SDS011;15634;48.766;2.272;2023-03-11T05:28:37;6.80;;;3.90;;
10226;SDS011;15634;48.766;2.272;2023-03-11T05:31:06;7.00;;;3.85;;
10226;SDS011;15634;48.766;2.272;2023-03-11T05:33:33;9.70;;;3.83;;
10226;SDS011;15634;48.766;2.272;2023-03-11T05:36:05;7.10;;;2.85;;
10226;SDS011;15634;48.766;2.272;2023-03-11T05:38:33;6.28;;;3.35;;
10226;SDS011;15634;48.766;2.272;2023-03-11T05:41:00;6.20;;;3.20;;
10226;SDS011;15634;48.766;2.272;2023-03-11T05:43:26;6.80;;;3.40;;
10226;SDS011;15634;48.766;2.272;2023-03-11T05:45:53;6.95;;;3.13;;
10226;SDS011;15634;48.766;2.272;2023-03-11T05:48:20;6.30;;;3.55;;
10226;SDS011;15634;48.766;2.272;2023-03-11T05:50:46;9.90;;;3.85;;
10226;SDS011;15634;48.766;2.272;2023-03-11T05:53:14;6.25;;;3.38;;
10226;SDS011;15634;48.766;2.272;2023-03-11T05:55:41;5.80;;;3.35;;
10226;SDS011;15634;48.766;2.272;2023-03-11T05:58:07;10.30;;;3.60;;
10226;SDS011;15634;48.766;2.272;2023-03-11T06:00:34;6.53;;;3.58;;
10226;SDS011;15634;48.766;2.272;2023-03-11T06:03:00;6.53;;;3.50;;
10226;SDS011;15634;48.766;2.272;2023-03-11T06:05:27;8.75;;;3.67;;
10226;SDS011;15634;48.766;2.272;2023-03-11T06:07:54;8.77;;;3.70;;
10226;SDS011;15634;48.766;2.272;2023-03-11T06:10:22;6.55;;;3.83;;
10226;SDS011;15634;48.766;2.272;2023-03-11T06:12:48;8.27;;;3.67;;
10226;SDS011;15634;48.766;2.272;2023-03-11T06:15:15;6.88;;;3.60;;
10226;SDS011;15634;48.766;2.272;2023-03-11T06:17:42;7.97;;;3.85;;
10226;SDS011;15634;48.766;2.272;2023-03-11T06:20:09;7.70;;;3.53;;
10226;SDS011;15634;48.766;2.272;2023-03-11T06:22:36;6.32;;;3.13;;
10226;SDS011;15634;48.766;2.272;2023-03-11T06:25:03;4.65;;;3.13;;
10226;SDS011;15634;48.766;2.272;2023-03-11T06:27:31;5.97;;;3.28;;
10226;SDS011;15634;48.766;2.272;2023-03-11T06:29:58;5.65;;;2.95;;
10226;SDS011;15634;48.766;2.272;2023-03-11T06:32:25;7.30;;;3.05;;
10226;SDS011;15634;48.766;2.272;2023-03-11T06:34:53;5.18;;;2.85;;
10226;SDS011;15634;48.766;2.272;2023-03-11T06:37:20;5.43;;;2.70;;
10226;SDS011;15634;48.766;2.272;2023-03-11T06:39:50;7.70;;;3.00;;
10226;SDS011;15634;48.766;2.272;2023-03-11T06:42:17;6.22;;;2.80;;
10226;SDS011;15634;48.766;2.272;2023-03-11T06:44:46;8.55;;;3.15;;
10226;SDS011;15634;48.766;2.272;2023-03-11T06:47:13;5.30;;;3.00;;
10226;SDS011;15634;48.766;2.272;2023-03-11T06:49:40;5.10;;;2.75;;
10226;SDS011;15634;48.766;2.272;2023-03-11T06:52:07;6.20;;;2.78;;
10226;SDS011;15634;48.766;2.272;2023-03-11T06:54:33;5.93;;;2.88;;
10226;SDS011;15634;48.766;2.272;2023-03-11T06:57:01;6.30;;;3.00;;
10226;SDS011;15634;48.766;2.272;2023-03-11T06:59:27;5.50;;;2.90;;
10226;SDS011;15634;48.766;2.272;2023-03-11T07:01:55;7.00;;;3.00;;
10226;SDS011;15634;48.766;2.272;2023-03-11T07:04:22;5.43;;;2.85;;
10226;SDS011;15634;48.766;2.272;2023-03-11T07:06:48;6.38;;;3.20;;
10226;SDS011;15634;48.766;2.272;2023-03-11T07:09:15;6.55;;;3.00;;
10226;SDS011;15634;48.766;2.272;2023-03-11T07:11:42;6.88;;;3.33;;
10226;SDS011;15634;48.766;2.272;2023-03-11T07:14:08;7.75;;;2.90;;
10226;SDS011;15634;48.766;2.272;2023-03-11T07:16:37;4.88;;;2.83;;
10226;SDS011;15634;48.766;2.272;2023-03-11T07:19:05;5.53;;;3.10;;
10226;SDS011;15634;48.766;2.272;2023-03-11T07:21:32;7.53;;;3.08;;
10226;SDS011;15634;48.766;2.272;2023-03-11T07:23:59;7.97;;;3.20;;
10226;SDS011;15634;48.766;2.272;2023-03-11T07:26:26;7.85;;;3.15;;
10226;SDS011;15634;48.766;2.272;2023-03-11T07:28:54;7.85;;;3.13;;
10226;SDS011;15634;48.766;2.272;2023-03-11T07:31:22;8.07;;;3.42;;
10226;SDS011;15634;48.766;2.272;2023-03-11T07:33:50;8.32;;;3.25;;
10226;SDS011;15634;48.766;2.272;2023-03-11T07:36:19;5.47;;;3.08;;
10226;SDS011;15634;48.766;2.272;2023-03-11T07:38:47;6.38;;;3.10;;
10226;SDS011;15634;48.766;2.272;2023-03-11T07:41:14;7.15;;;3.00;;
10226;SDS011;15634;48.766;2.272;2023-03-11T07:43:41;5.75;;;3.03;;
10226;SDS011;15634;48.766;2.272;2023-03-11T07:46:08;6.22;;;3.28;;
10226;SDS011;15634;48.766;2.272;2023-03-11T07:48:37;7.57;;;2.88;;
10226;SDS011;15634;48.766;2.272;2023-03-11T07:51:05;6.35;;;2.78;;
10226;SDS011;15634;48.766;2.272;2023-03-11T07:53:34;10.25;;;3.30;;
10226;SDS011;15634;48.766;2.272;2023-03-11T07:56:01;7.65;;;3.38;;
10226;SDS011;15634;48.766;2.272;2023-03-11T07:58:29;8.20;;;3.10;;
10226;SDS011;15634;48.766;2.272;2023-03-11T08:00:55;6.65;;;3.20;;
10226;SDS011;15634;48.766;2.272;2023-03-11T08:03:22;9.07;;;3.58;;
10226;SDS011;15634;48.766;2.272;2023-03-11T08:05:49;5.68;;;3.40;;
10226;SDS011;15634;48.766;2.272;2023-03-11T08:08:16;11.15;;;3.58;;
10226;SDS011;15634;48.766;2.272;2023-03-11T08:10:44;5.75;;;3.22;;
10226;SDS011;15634;48.766;2.272;2023-03-11T08:13:10;8.50;;;3.58;;
10226;SDS011;15634;48.766;2.272;2023-03-11T08:15:37;7.88;;;3.35;;
10226;SDS011;15634;48.766;2.272;2023-03-11T08:18:04;10.98;;;3.50;;
10226;SDS011;15634;48.766;2.272;2023-03-11T08:20:31;7.53;;;3.15;;
10226;SDS011;15634;48.766;2.272;2023-03-11T08:22:57;6.20;;;3.17;;
10226;SDS011;15634;48.766;2.272;2023-03-11T08:25:24;5.72;;;3.10;;
10226;SDS011;15634;48.766;2.272;2023-03-11T08:27:52;8.80;;;3.78;;
10226;SDS011;15634;48.766;2.272;2023-03-11T08:30:19;7.63;;;4.10;;
10226;SDS011;15634;48.766;2.272;2023-03-11T08:32:46;6.32;;;3.35;;
10226;SDS011;15634;48.766;2.272;2023-03-11T08:35:13;7.88;;;3.22;;
10226;SDS011;15634;48.766;2.272;2023-03-11T08:37:39;7.95;;;3.03;;
10226;SDS011;15634;48.766;2.272;2023-03-11T08:40:07;7.55;;;3.40;;
10226;SDS011;15634;48.766;2.272;2023-03-11T08:42:34;7.05;;;3.50;;
10226;SDS011;15634;48.766;2.272;2023-03-11T08:45:03;6.72;;;3.28;;
10226;SDS011;15634;48.766;2.272;2023-03-11T08:47:32;6.57;;;3.00;;
10226;SDS011;15634;48.766;2.272;2023-03-11T08:49:59;6.90;;;3.40;;
10226;SDS011;15634;48.766;2.272;2023-03-11T08:52:26;7.05;;;3.10;;
10226;SDS011;15634;48.766;2.272;2023-03-11T08:54:52;7.10;;;3.20;;
10226;SDS011;15634;48.766;2.272;2023-03-11T08:57:19;6.60;;;3.42;;
10226;SDS011;15634;48.766;2.272;2023-03-11T08:59:46;7.32;;;2.92;;
10226;SDS011;15634;48.766;2.272;2023-03-11T09:02:14;7.13;;;2.95;;
10226;SDS011;15634;48.766;2.272;2023-03-11T09:04:40;10.35;;;3.55;;
10226;SDS011;15634;48.766;2.272;2023-03-11T09:07:08;7.80;;;3.20;;
10226;SDS011;15634;48.766;2.272;2023-03-11T09:09:35;6.65;;;3.00;;
10226;SDS011;15634;48.766;2.272;2023-03-11T09:12:02;5.55;;;2.83;;
10226;SDS011;15634;48.766;2.272;2023-03-11T09:14:29;6.65;;;2.88;;
10226;SDS011;15634;48.766;2.272;2023-03-11T09:16:55;6.05;;;2.90;;
10226;SDS011;15634;48.766;2.272;2023-03-11T09:19:23;10.00;;;3.50;;
10226;SDS011;15634;48.766;2.272;2023-03-11T09:21:50;6.15;;;2.75;;
10226;SDS011;15634;48.766;2.272;2023-03-11T09:24:17;8.43;;;3.10;;
10226;SDS011;15634;48.766;2.272;2023-03-11T09:26:43;6.70;;;3.00;;
10226;SDS011;15634;48.766;2.272;2023-03-11T09:29:10;8.15;;;2.75;;
10226;SDS011;15634;48.766;2.272;2023-03-11T09:31:36;6.25;;;2.83;;
10226;SDS011;15634;48.766;2.272;2023-03-11T09:34:03;6.13;;;3.20;;
10226;SDS011;15634;48.766;2.272;2023-03-11T09:36:32;6.63;;;3.10;;
10226;SDS011;15634;48.766;2.272;2023-03-11T09:38:59;7.30;;;3.15;;
10226;SDS011;15634;48.766;2.272;2023-03-11T09:41:27;6.85;;;2.65;;
10226;SDS011;15634;48.766;2.272;2023-03-11T09:44:01;7.45;;;3.08;;
10226;SDS011;15634;48.766;2.272;2023-03-11T09:46:41;9.48;;;2.90;;
10226;SDS011;15634;48.766;2.272;2023-03-11T09:49:42;9.50;;;3.40;;
10226;SDS011;15634;48.766;2.272;2023-03-11T09:52:25;6.15;;;3.00;;
10226;SDS011;15634;48.766;2.272;2023-03-11T09:54:56;7.30;;;2.80;;
10226;SDS011;15634;48.766;2.272;2023-03-11T09:57:24;7.70;;;2.53;;
10226;SDS011;15634;48.766;2.272;2023-03-11T09:59:53;6.35;;;2.90;;
10226;SDS011;15634;48.766;2.272;2023-03-11T10:02:21;7.72;;;3.00;;
10226;SDS011;15634;48.766;2.272;2023-03-11T10:04:50;6.47;;;3.03;;
10226;SDS011;15634;48.766;2.272;2023-03-11T10:07:21;8.15;;;3.47;;
10226;SDS011;15634;48.766;2.272;2023-03-11T10:09:52;4.50;;;2.70;;
10226;SDS011;15634;48.766;2.272;2023-03-11T10:12:23;7.82;;;2.97;;
10226;SDS011;15634;48.766;2.272;2023-03-11T10:15:03;5.40;;;3.25;;
10226;SDS011;15634;48.766;2.272;2023-03-11T10:17:45;9.15;;;3.50;;
10226;SDS011;15634;48.766;2.272;2023-03-11T10:20:24;7.07;;;3.10;;
10226;SDS011;15634;48.766;2.272;2023-03-11T10:22:56;6.28;;;3.05;;
10226;SDS011;15634;48.766;2.272;2023-03-11T10:25:29;12.25;;;3.38;;
10226;SDS011;15634;48.766;2.272;2023-03-11T10:28:00;7.15;;;2.97;;
10226;SDS011;15634;48.766;2.272;2023-03-11T10:30:31;6.30;;;2.90;;
10226;SDS011;15634;48.766;2.272;2023-03-11T10:33:00;7.13;;;3.20;;
10226;SDS011;15634;48.766;2.272;2023-03-11T10:35:33;5.45;;;2.72;;
10226;SDS011;15634;48.766;2.272;2023-03-11T10:38:04;5.60;;;2.83;;
10226;SDS011;15634;48.766;2.272;2023-03-11T10:40:40;6.93;;;3.00;;
10226;SDS011;15634;48.766;2.272;2023-03-11T10:45:39;7.03;;;2.90;;
10226;SDS011;15634;48.766;2.272;2023-03-11T10:48:09;5.10;;;2.50;;
10226;SDS011;15634;48.766;2.272;2023-03-11T10:50:36;6.32;;;2.78;;
10226;SDS011;15634;48.766;2.272;2023-03-11T10:53:13;6.13;;;2.22;;
10226;SDS011;15634;48.766;2.272;2023-03-11T10:55:45;2.78;;;2.10;;
10226;SDS011;15634;48.766;2.272;2023-03-11T10:58:14;4.30;;;2.67;;
10226;SDS011;15634;48.766;2.272;2023-03-11T11:00:42;5.15;;;2.47;;
10226;SDS011;15634;48.766;2.272;2023-03-11T11:03:15;6.57;;;3.10;;
10226;SDS011;15634;48.766;2.272;2023-03-11T11:05:48;4.90;;;2.60;;
10226;SDS011;15634;48.766;2.272;2023-03-11T11:08:23;4.30;;;2.55;;
10226;SDS011;15634;48.766;2.272;2023-03-11T11:10:51;8.23;;;2.80;;
10226;SDS011;15634;48.766;2.272;2023-03-11T11:13:21;3.22;;;2.22;;
10226;SDS011;15634;48.766;2.272;2023-03-11T11:15:56;4.15;;;2.70;;
10226;SDS011;15634;48.766;2.272;2023-03-11T11:18:25;3.05;;;2.10;;
10226;SDS011;15634;48.766;2.272;2023-03-11T11:20:54;5.00;;;2.45;;
10226;SDS011;15634;48.766;2.272;2023-03-11T11:23:25;5.55;;;2.85;;
10226;SDS011;15634;48.766;2.272;2023-03-11T11:25:57;4.75;;;2.90;;
10226;SDS011;15634;48.766;2.272;2023-03-11T11:28:25;8.80;;;3.15;;
10226;SDS011;15634;48.766;2.272;2023-03-11T11:30:53;4.53;;;2.47;;
10226;SDS011;15634;48.766;2.272;2023-03-11T11:33:21;4.47;;;2.50;;
10226;SDS011;15634;48.766;2.272;2023-03-11T11:35:50;4.40;;;2.30;;
10226;SDS011;15634;48.766;2.272;2023-03-11T11:38:20;6.10;;;2.50;;
10226;SDS011;15634;48.766;2.272;2023-03-11T11:40:48;6.95;;;3.00;;
10226;SDS011;15634;48.766;2.272;2023-03-11T11:43:17;8.13;;;3.00;;
10226;SDS011;15634;48.766;2.272;2023-03-11T11:45:44;5.30;;;2.58;;
10226;SDS011;15634;48.766;2.272;2023-03-11T11:48:14;4.00;;;2.72;;
10226;SDS011;15634;48.766;2.272;2023-03-11T11:50:47;4.40;;;2.67;;
10226;SDS011;15634;48.766;2.272;2023-03-11T11:53:22;4.97;;;2.80;;
10226;SDS011;15634;48.766;2.272;2023-03-11T11:55:53;4.78;;;2.85;;
10226;SDS011;15634;48.766;2.272;2023-03-11T11:58:21;5.03;;;2.70;;
10226;SDS011;15634;48.766;2.272;2023-03-11T12:00:50;4.55;;;2.60;;
10226;SDS011;15634;48.766;2.272;2023-03-11T12:03:36;5.70;;;3.10;;
10226;SDS011;15634;48.766;2.272;2023-03-11T12:06:11;6.72;;;2.65;;
10226;SDS011;15634;48.766;2.272;2023-03-11T12:08:44;9.07;;;3.28;;
10226;SDS011;15634;48.766;2.272;2023-03-11T12:11:13;6.43;;;2.83;;
10226;SDS011;15634;48.766;2.272;2023-03-11T12:13:48;4.13;;;2.40;;
10226;SDS011;15634;48.766;2.272;2023-03-11T12:16:22;5.72;;;2.97;;
10226;SDS011;15634;48.766;2.272;2023-03-11T12:18:53;4.78;;;2.80;;
10226;SDS011;15634;48.766;2.272;2023-03-11T12:21:27;6.03;;;2.75;;
10226;SDS011;15634;48.766;2.272;2023-03-11T12:24:04;9.88;;;3.20;;
10226;SDS011;15634;48.766;2.272;2023-03-11T12:26:37;6.35;;;3.40;;
10226;SDS011;15634;48.766;2.272;2023-03-11T12:29:07;7.60;;;2.88;;
10226;SDS011;15634;48.766;2.272;2023-03-11T12:31:38;8.30;;;2.90;;
10226;SDS011;15634;48.766;2.272;2023-03-11T12:34:06;5.78;;;3.10;;
10226;SDS011;15634;48.766;2.272;2023-03-11T12:36:36;5.43;;;3.25;;
10226;SDS011;15634;48.766;2.272;2023-03-11T12:39:04;5.03;;;2.72;;
10226;SDS011;15634;48.766;2.272;2023-03-11T12:41:33;7.22;;;2.85;;
10226;SDS011;15634;48.766;2.272;2023-03-11T12:47:00;6.18;;;2.90;;
10226;SDS011;15634;48.766;2.272;2023-03-11T12:49:54;7.38;;;3.20;;
10226;SDS011;15634;48.766;2.272;2023-03-11T12:52:31;5.15;;;3.15;;
10226;SDS011;15634;48.766;2.272;2023-03-11T12:58:14;6.07;;;3.03;;
10226;SDS011;15634;48.766;2.272;2023-03-11T13:01:08;6.53;;;2.95;;
10226;SDS011;15634;48.766;2.272;2023-03-11T13:03:46;4.13;;;3.08;;
10226;SDS011;15634;48.766;2.272;2023-03-11T13:06:26;7.00;;;3.83;;
10226;SDS011;15634;48.766;2.272;2023-03-11T13:09:03;4.53;;;2.95;;
10226;SDS011;15634;48.766;2.272;2023-03-11T13:11:38;5.22;;;2.97;;
10226;SDS011;15634;48.766;2.272;2023-03-11T13:16:56;4.82;;;3.28;;
10226;SDS011;15634;48.766;2.272;2023-03-11T13:19:36;6.60;;;3.42;;
10226;SDS011;15634;48.766;2.272;2023-03-11T13:25:20;5.97;;;3.00;;
10226;SDS011;15634;48.766;2.272;2023-03-11T13:27:56;7.90;;;3.40;;
10226;SDS011;15634;48.766;2.272;2023-03-11T13:30:31;7.05;;;3.25;;
10226;SDS011;15634;48.766;2.272;2023-03-11T13:35:54;7.22;;;3.15;;
10226;SDS011;15634;48.766;2.272;2023-03-11T13:38:33;5.72;;;3.10;;
10226;SDS011;15634;48.766;2.272;2023-03-11T13:41:12;10.85;;;3.75;;
10226;SDS011;15634;48.766;2.272;2023-03-11T13:43:42;6.93;;;3.10;;
10226;SDS011;15634;48.766;2.272;2023-03-11T13:46:14;5.65;;;3.20;;
10226;SDS011;15634;48.766;2.272;2023-03-11T13:48:59;5.97;;;3.20;;
10226;SDS011;15634;48.766;2.272;2023-03-11T13:51:31;5.63;;;3.13;;
10226;SDS011;15634;48.766;2.272;2023-03-11T13:54:01;6.45;;;3.60;;
10226;SDS011;15634;48.766;2.272;2023-03-11T13:56:31;5.85;;;3.03;;
10226;SDS011;15634;48.766;2.272;2023-03-11T13:59:13;7.78;;;3.13;;
10226;SDS011;15634;48.766;2.272;2023-03-11T14:01:46;8.85;;;3.88;;
10226;SDS011;15634;48.766;2.272;2023-03-11T14:04:16;5.57;;;2.80;;
10226;SDS011;15634;48.766;2.272;2023-03-11T14:06:45;5.57;;;3.35;;
10226;SDS011;15634;48.766;2.272;2023-03-11T14:09:16;6.00;;;3.05;;
10226;SDS011;15634;48.766;2.272;2023-03-11T14:11:44;6.95;;;3.42;;
10226;SDS011;15634;48.766;2.272;2023-03-11T14:14:18;5.05;;;2.95;;
10226;SDS011;15634;48.766;2.272;2023-03-11T14:16:55;5.13;;;3.13;;
10226;SDS011;15634;48.766;2.272;2023-03-11T14:19:24;8.07;;;3.20;;
10226;SDS011;15634;48.766;2.272;2023-03-11T14:21:52;6.63;;;3.10;;
10226;SDS011;15634;48.766;2.272;2023-03-11T14:24:21;8.93;;;3.42;;
10226;SDS011;15634;48.766;2.272;2023-03-11T14:26:48;5.93;;;3.03;;
10226;SDS011;15634;48.766;2.272;2023-03-11T14:29:20;8.98;;;3.28;;
10226;SDS011;15634;48.766;2.272;2023-03-11T14:31:55;6.80;;;3.45;;
10226;SDS011;15634;48.766;2.272;2023-03-11T14:34:25;6.15;;;3.20;;
10226;SDS011;15634;48.766;2.272;2023-03-11T14:36:53;5.47;;;3.10;;
10226;SDS011;15634;48.766;2.272;2023-03-11T14:39:25;5.18;;;3.03;;
10226;SDS011;15634;48.766;2.272;2023-03-11T14:41:55;6.57;;;3.30;;
10226;SDS011;15634;48.766;2.272;2023-03-11T14:44:23;7.70;;;3.28;;
10226;SDS011;15634;48.766;2.272;2023-03-11T14:46:51;6.07;;;2.85;;
10226;SDS011;15634;48.766;2.272;2023-03-11T14:49:23;7.25;;;3.15;;
10226;SDS011;15634;48.766;2.272;2023-03-11T14:51:52;4.68;;;2.80;;
10226;SDS011;15634;48.766;2.272;2023-03-11T14:54:21;3.90;;;2.97;;
10226;SDS011;15634;48.766;2.272;2023-03-11T14:56:51;6.22;;;2.85;;
10226;SDS011;15634;48.766;2.272;2023-03-11T14:59:21;7.38;;;3.20;;
10226;SDS011;15634;48.766;2.272;2023-03-11T15:01:50;5.63;;;2.85;;
10226;SDS011;15634;48.766;2.272;2023-03-11T15:04:20;5.88;;;3.13;;
10226;SDS011;15634;48.766;2.272;2023-03-11T15:06:55;4.38;;;2.53;;
10226;SDS011;15634;48.766;2.272;2023-03-11T15:09:22;3.60;;;2.90;;
10226;SDS011;15634;48.766;2.272;2023-03-11T15:11:49;4.80;;;2.92;;
10226;SDS011;15634;48.766;2.272;2023-03-11T15:14:20;4.03;;;2.60;;
10226;SDS011;15634;48.766;2.272;2023-03-11T15:16:48;4.93;;;2.70;;
10226;SDS011;15634;48.766;2.272;2023-03-11T15:22:20;4.78;;;3.00;;
10226;SDS011;15634;48.766;2.272;2023-03-11T15:24:49;7.05;;;3.08;;